Time;durP1;ratioP1;P1;durP2;ratioP2;P2;SDS_P1;SDS_P2;PMS_P1;PMS_P2;Temp;Humidity;BMP_temperature;BMP_pressure;BME280_temperature;BME280_humidity;BME280_pressure;Samples;Min_cycle;Max_cycle;Signal;HPM_P1;HPM_P2
2021/08/04 00:01:54;;;;;;;2.53;2.20;;;;;;;24.25;43.80;95291.47;4982637;28;20137;-71
2021/08/04 00:04:19;;;;;;;2.40;2.20;;;;;;;24.27;44.00;95300.03;4990468;28;20038;-72
2021/08/04 00:06:45;;;;;;;2.67;2.47;;;;;;;24.40;44.32;95313.25;4993325;28;20019;-70
2021/08/04 00:09:10;;;;;;;2.97;2.65;;;;;;;24.42;44.68;95302.78;4991821;28;20074;-71
2021/08/04 00:11:36;;;;;;;3.53;2.40;;;;;;;24.53;44.01;95317.16;4990266;28;20034;-70
2021/08/04 00:14:02;;;;;;;3.97;2.78;;;;;;;24.59;44.53;95310.16;4991652;28;20050;-71
2021/08/04 00:16:27;;;;;;;2.70;2.50;;;;;;;24.53;44.38;95311.72;4972768;28;20438;-71
2021/08/04 00:18:53;;;;;;;3.30;1.95;;;;;;;24.59;44.09;95313.63;4973596;28;20038;-72
2021/08/04 00:21:18;;;;;;;2.40;2.20;;;;;;;24.56;44.12;95298.09;4971417;28;20046;-70
2021/08/04 00:23:44;;;;;;;2.78;2.58;;;;;;;24.56;43.99;95302.75;4972092;28;20054;-70
2021/08/04 00:26:09;;;;;;;2.63;2.30;;;;;;;24.57;44.23;95296.16;4984963;23;20051;-71
2021/08/04 00:28:35;;;;;;;3.05;2.42;;;;;;;24.54;44.05;95291.50;4987359;28;20027;-70
2021/08/04 00:31:01;;;;;;;2.67;2.40;;;;;;;24.45;44.25;95310.16;4970329;28;20058;-71
2021/08/04 00:33:26;;;;;;;2.53;2.33;;;;;;;24.47;44.42;95310.56;4973694;28;20034;-71
2021/08/04 00:35:51;;;;;;;2.80;2.60;;;;;;;24.53;44.56;95306.28;4971937;28;20042;-70
2021/08/04 00:38:19;;;;;;;2.85;2.20;;;;;;;24.52;44.21;95316.38;4970803;28;20034;-71
2021/08/04 00:40:44;;;;;;;2.70;2.50;;;;;;;24.47;44.67;95314.03;4971980;28;20046;-71
2021/08/04 00:43:10;;;;;;;2.65;2.45;;;;;;;24.38;44.51;95303.53;4970730;28;20101;-71
2021/08/04 00:45:36;;;;;;;2.50;2.30;;;;;;;24.34;44.83;95310.13;4970493;28;20102;-71
2021/08/04 00:48:02;;;;;;;2.92;2.35;;;;;;;24.41;44.88;95314.81;4969258;28;20674;-71
2021/08/04 00:50:28;;;;;;;4.40;2.85;;;;;;;24.33;45.02;95309.34;4971871;28;20031;-71
2021/08/04 00:52:53;;;;;;;2.60;2.40;;;;;;;24.27;44.82;95310.13;4971597;28;20043;-71
2021/08/04 00:55:19;;;;;;;3.97;2.70;;;;;;;24.17;45.05;95306.25;4971392;28;20471;-71
2021/08/04 00:57:44;;;;;;;3.20;2.60;;;;;;;24.17;45.40;95317.09;4972991;28;20033;-71
2021/08/04 01:00:11;;;;;;;3.40;3.20;;;;;;;24.18;45.34;95307.00;4970868;28;20043;-70
2021/08/04 01:03:00;;;;;;;3.08;2.80;;;;;;;24.19;45.34;95305.84;4971077;28;20613;-71
2021/08/04 01:05:35;;;;;;;2.80;2.60;;;;;;;24.18;45.38;95307.78;4971382;28;20514;-70
2021/08/04 01:08:33;;;;;;;2.70;2.50;;;;;;;24.11;45.40;95315.94;4970979;28;20382;-71
2021/08/04 01:11:02;;;;;;;3.05;2.85;;;;;;;23.91;45.67;95318.22;4971615;28;20074;-71
2021/08/04 01:13:29;;;;;;;3.10;2.80;;;;;;;24.06;45.73;95319.03;4971663;28;20054;-71
2021/08/04 01:16:16;;;;;;;3.28;2.90;;;;;;;24.11;45.19;95300.41;4969449;28;20485;-71
2021/08/04 01:19:00;;;;;;;2.92;2.63;;;;;;;24.15;45.48;95308.53;4971918;28;20435;-71
2021/08/04 01:21:44;;;;;;;3.60;3.15;;;;;;;24.14;45.44;95309.72;4971775;28;20047;-71
2021/08/04 01:24:32;;;;;;;4.85;2.90;;;;;;;24.20;45.58;95310.09;4971045;28;20091;-70
2021/08/04 01:26:59;;;;;;;3.40;3.10;;;;;;;24.25;45.34;95304.28;4969326;28;20070;-71
2021/08/04 01:29:26;;;;;;;4.20;3.15;;;;;;;24.17;45.32;95298.09;4971101;28;20140;-70
2021/08/04 01:31:58;;;;;;;3.50;2.97;;;;;;;24.12;45.26;95299.25;4978515;28;20039;-71
2021/08/04 01:34:24;;;;;;;3.28;2.97;;;;;;;24.14;45.46;95307.00;4970743;28;20095;-71
2021/08/04 01:36:50;;;;;;;3.67;3.05;;;;;;;24.06;45.23;95297.31;4972762;28;20026;-71
2021/08/04 01:39:18;;;;;;;3.08;2.78;;;;;;;24.08;45.63;95303.13;4971554;28;20030;-71
2021/08/04 01:41:45;;;;;;;3.97;3.58;;;;;;;24.07;45.55;95301.56;4969704;28;20489;-70
2021/08/04 01:44:11;;;;;;;3.90;3.20;;;;;;;24.15;45.47;95303.09;4970935;28;20034;-70
2021/08/04 01:46:37;;;;;;;3.17;2.85;;;;;;;24.21;45.41;95295.34;4969426;28;20441;-71
2021/08/04 01:49:04;;;;;;;3.40;3.10;;;;;;;24.26;45.72;95305.84;4970807;28;20437;-72
2021/08/04 01:51:30;;;;;;;4.68;3.28;;;;;;;24.14;45.51;95287.97;4972628;28;20513;-71
2021/08/04 01:53:56;;;;;;;3.33;3.03;;;;;;;24.14;45.56;95298.84;4970587;28;20055;-71
2021/08/04 01:56:22;;;;;;;4.43;2.97;;;;;;;24.18;45.49;95291.47;4969224;28;20051;-71
2021/08/04 01:58:48;;;;;;;4.10;3.28;;;;;;;24.27;45.40;95291.88;4970783;28;20061;-71
2021/08/04 02:01:13;;;;;;;4.57;3.35;;;;;;;24.21;45.44;95285.28;4962552;28;20023;-71
2021/08/04 02:03:39;;;;;;;3.92;3.08;;;;;;;24.29;45.57;95286.03;4972499;28;20031;-71
2021/08/04 02:06:29;;;;;;;3.58;3.20;;;;;;;24.26;45.14;95282.16;4970073;28;20035;-70
2021/08/04 02:09:02;;;;;;;3.38;3.08;;;;;;;24.26;45.41;95282.16;4985341;28;20125;-71
2021/08/04 02:11:41;;;;;;;3.40;3.10;;;;;;;24.23;45.21;95282.94;4970086;28;20043;-70
2021/08/04 02:14:24;;;;;;;3.60;3.30;;;;;;;24.23;45.15;95279.44;4969055;28;20043;-71
2021/08/04 02:17:21;;;;;;;3.15;2.85;;;;;;;24.48;44.78;95282.97;4962989;28;20046;-71
2021/08/04 02:20:21;;;;;;;5.13;2.90;;;;;;;24.46;44.96;95285.28;4969408;28;20401;-70
2021/08/04 02:23:18;;;;;;;3.28;3.03;;;;;;;24.19;45.20;95289.53;4970074;28;20042;-71
2021/08/04 02:25:45;;;;;;;3.97;3.20;;;;;;;24.08;45.34;95289.53;4969913;28;20139;-70
2021/08/04 02:28:13;;;;;;;4.47;3.10;;;;;;;24.03;45.58;95287.19;4970330;28;20027;-70
2021/08/04 02:30:40;;;;;;;3.38;3.10;;;;;;;23.98;45.50;95272.03;4969305;28;20042;-71
2021/08/04 02:33:06;;;;;;;3.40;2.88;;;;;;;24.08;45.39;95273.22;4966192;28;20050;-70
2021/08/04 02:35:32;;;;;;;4.40;3.47;;;;;;;24.13;45.31;95275.56;4969912;28;20081;-70
2021/08/04 02:37:58;;;;;;;3.40;3.20;;;;;;;24.19;45.19;95282.16;4970156;28;20042;-71
2021/08/04 02:40:25;;;;;;;4.80;3.10;;;;;;;24.28;44.79;95268.19;4970186;28;20045;-71
2021/08/04 02:42:52;;;;;;;3.47;3.03;;;;;;;24.24;45.11;95268.16;4972759;28;20102;-72
2021/08/04 02:45:18;;;;;;;3.10;2.75;;;;;;;24.29;45.07;95278.66;4973889;28;20397;-71
2021/08/04 02:47:44;;;;;;;4.07;3.22;;;;;;;24.23;44.99;95272.06;4966693;28;20047;-71
2021/08/04 02:50:11;;;;;;;3.88;3.53;;;;;;;24.22;44.89;95270.50;4973337;28;20039;-71
2021/08/04 02:52:37;;;;;;;6.22;3.25;;;;;;;24.13;45.07;95261.97;4973116;28;20031;-71
2021/08/04 02:55:04;;;;;;;3.53;3.05;;;;;;;24.16;45.18;95274.78;4973921;28;20037;-71
2021/08/04 02:57:29;;;;;;;3.33;2.92;;;;;;;24.11;45.23;95270.50;4975255;28;20023;-71
2021/08/04 02:59:55;;;;;;;3.33;3.00;;;;;;;24.10;44.92;95258.06;4973782;28;20090;-71
2021/08/04 03:02:20;;;;;;;3.72;3.22;;;;;;;24.17;45.18;95259.25;4967444;28;20126;-70
2021/08/04 03:04:45;;;;;;;3.25;3.05;;;;;;;24.20;45.39;95272.06;4973672;28;20050;-70
2021/08/04 03:07:11;;;;;;;3.63;3.33;;;;;;;24.21;45.22;95268.97;4973306;28;20628;-71
2021/08/04 03:09:36;;;;;;;3.55;3.25;;;;;;;24.41;44.68;95271.28;4974554;28;20022;-71
2021/08/04 03:12:02;;;;;;;3.10;2.90;;;;;;;24.21;45.03;95265.44;4974074;28;20497;-70
2021/08/04 03:14:28;;;;;;;3.38;3.08;;;;;;;24.23;45.14;95266.63;4972256;28;20042;-71
2021/08/04 03:16:53;;;;;;;3.63;3.40;;;;;;;24.21;45.08;95268.97;4969013;28;20497;-71
2021/08/04 03:19:18;;;;;;;3.47;3.17;;;;;;;24.32;44.80;95268.97;4973237;28;20038;-70
2021/08/04 03:21:44;;;;;;;3.38;2.85;;;;;;;24.25;44.74;95260.78;4975292;28;20058;-71
2021/08/04 03:24:10;;;;;;;4.22;3.30;;;;;;;24.21;45.08;95263.53;4973618;28;20037;-71
2021/08/04 03:26:35;;;;;;;3.60;3.30;;;;;;;24.18;44.89;95264.31;4972869;28;20046;-70
2021/08/04 03:29:01;;;;;;;4.75;3.30;;;;;;;24.25;44.87;95271.66;4973546;28;20035;-71
2021/08/04 03:31:26;;;;;;;4.13;3.55;;;;;;;24.31;44.80;95268.19;4968235;28;20602;-70
2021/08/04 03:33:51;;;;;;;3.63;3.33;;;;;;;24.35;44.92;95268.97;4974919;28;20027;-71
2021/08/04 03:36:17;;;;;;;5.15;3.60;;;;;;;24.41;44.49;95263.13;4972873;28;20070;-70
2021/08/04 03:38:42;;;;;;;3.28;2.97;;;;;;;24.32;44.59;95272.47;4973253;28;20583;-71
2021/08/04 03:41:08;;;;;;;4.32;3.20;;;;;;;24.30;44.91;95271.28;4973254;28;20122;-70
2021/08/04 03:43:33;;;;;;;3.30;3.00;;;;;;;24.27;44.28;95261.97;4973104;28;20396;-70
2021/08/04 03:45:59;;;;;;;3.58;3.28;;;;;;;24.32;44.37;95264.31;4969427;28;20094;-70
2021/08/04 03:48:24;;;;;;;3.83;2.95;;;;;;;24.23;44.89;95263.13;4973411;28;20027;-71
2021/08/04 03:50:50;;;;;;;3.70;3.45;;;;;;;24.21;44.78;95258.09;4973111;28;20047;-71
2021/08/04 03:53:15;;;;;;;4.80;3.70;;;;;;;24.17;45.17;95267.41;4972733;28;20054;-71
2021/08/04 03:55:41;;;;;;;4.63;4.22;;;;;;;24.09;45.30;95261.19;4971330;28;20035;-71
2021/08/04 03:58:06;;;;;;;4.90;3.25;;;;;;;24.08;45.17;95259.63;4972842;28;20057;-71
2021/08/04 04:00:31;;;;;;;4.72;3.92;;;;;;;24.08;45.39;95262.34;4975047;28;20026;-71
2021/08/04 04:02:57;;;;;;;3.78;3.47;;;;;;;24.09;45.02;95256.53;4968805;28;20041;-71
2021/08/04 04:05:22;;;;;;;3.35;3.05;;;;;;;24.16;44.83;95249.53;4972934;28;20070;-71
2021/08/04 04:07:48;;;;;;;3.25;2.92;;;;;;;24.20;44.98;95250.31;4972172;28;20444;-71
2021/08/04 04:10:13;;;;;;;6.57;3.42;;;;;;;24.26;44.82;95254.19;4972194;28;20054;-71
2021/08/04 04:12:39;;;;;;;3.42;2.95;;;;;;;24.37;44.49;95242.19;4974222;28;20081;-70
2021/08/04 04:15:05;;;;;;;3.47;3.10;;;;;;;24.30;44.75;95244.88;4972523;28;20047;-71
2021/08/04 04:17:31;;;;;;;3.72;3.03;;;;;;;24.23;44.80;95244.88;4968150;28;20043;-74
2021/08/04 04:19:56;;;;;;;3.22;2.92;;;;;;;24.14;45.12;95230.91;4972338;28;20039;-69
2021/08/04 04:22:22;;;;;;;4.93;3.85;;;;;;;24.24;44.97;95246.44;4972246;28;20042;-71
2021/08/04 04:24:47;;;;;;;3.60;3.30;;;;;;;24.37;44.55;95255.00;4974144;28;20369;-71
2021/08/04 04:27:13;;;;;;;3.63;3.33;;;;;;;24.40;44.64;95251.50;4971871;28;20035;-69
2021/08/04 04:29:39;;;;;;;4.13;3.58;;;;;;;24.42;44.42;95246.47;4972415;28;20047;-72
2021/08/04 04:32:06;;;;;;;3.90;3.40;;;;;;;24.42;44.72;95246.47;4972131;28;20393;-71
2021/08/04 04:34:31;;;;;;;3.40;3.10;;;;;;;24.44;44.25;95241.41;4971453;28;20038;-72
2021/08/04 04:36:56;;;;;;;3.50;3.22;;;;;;;24.47;44.53;95253.44;4971731;28;20066;-78
2021/08/04 04:39:22;;;;;;;4.00;3.38;;;;;;;24.58;44.38;95251.50;4988952;28;20015;-67
2021/08/04 04:41:47;;;;;;;3.78;3.30;;;;;;;24.61;44.15;95253.41;4971837;28;20039;-66
2021/08/04 04:44:13;;;;;;;4.53;3.80;;;;;;;24.64;44.04;95250.69;4971619;28;20560;-67
2021/08/04 04:46:38;;;;;;;3.60;3.28;;;;;;;24.73;43.92;95250.28;4968814;28;20664;-71
2021/08/04 04:49:04;;;;;;;3.25;2.95;;;;;;;24.74;43.74;95242.91;4971398;28;20033;-72
2021/08/04 04:51:29;;;;;;;3.65;3.30;;;;;;;24.80;43.88;95247.53;4973592;28;20531;-72
2021/08/04 04:53:54;;;;;;;4.25;3.38;;;;;;;24.90;43.62;95265.78;4971325;28;20420;-72
2021/08/04 04:56:20;;;;;;;2.90;2.60;;;;;;;24.78;43.77;95247.16;4971108;28;20055;-71
2021/08/04 04:58:45;;;;;;;3.63;3.10;;;;;;;24.87;43.46;95258.41;4970444;28;20039;-71
2021/08/04 05:01:11;;;;;;;2.88;2.55;;;;;;;24.90;43.68;95259.56;4969457;28;20027;-71
2021/08/04 05:03:36;;;;;;;3.00;2.70;;;;;;;25.01;43.62;95245.91;4971892;28;20029;-71
2021/08/04 05:06:01;;;;;;;4.15;2.97;;;;;;;25.01;43.77;95270.41;4970923;28;20043;-71
2021/08/04 05:08:27;;;;;;;3.38;2.95;;;;;;;25.09;43.64;95250.22;4986465;28;20544;-71
2021/08/04 05:10:52;;;;;;;3.25;2.95;;;;;;;25.28;43.07;95257.13;4971464;28;20045;-67
2021/08/04 05:13:17;;;;;;;3.80;2.60;;;;;;;25.41;42.79;95264.44;4969590;28;20030;-67
2021/08/04 05:15:43;;;;;;;3.33;2.55;;;;;;;25.46;42.33;95260.53;4972579;28;20034;-67
2021/08/04 05:18:08;;;;;;;3.33;2.70;;;;;;;25.55;42.64;95271.00;4969419;28;20452;-67
2021/08/04 05:20:34;;;;;;;3.90;2.60;;;;;;;25.50;42.54;95269.47;4968199;28;20115;-67
2021/08/04 05:22:59;;;;;;;3.40;3.10;;;;;;;25.54;42.38;95264.78;4970897;28;20525;-67
2021/08/04 05:25:26;;;;;;;4.15;2.50;;;;;;;25.49;42.19;95275.31;4968232;28;20069;-67
2021/08/04 05:27:52;;;;;;;3.45;2.55;;;;;;;25.37;42.59;95258.25;4987125;28;20117;-67
2021/08/04 05:30:17;;;;;;;2.60;2.40;;;;;;;25.68;42.37;95277.53;4969246;28;20463;-67
2021/08/04 05:32:43;;;;;;;2.30;2.08;;;;;;;25.77;42.15;95272.47;4969602;28;20043;-66
2021/08/04 05:35:09;;;;;;;3.63;2.30;;;;;;;25.65;42.20;95267.47;4970708;28;20126;-67
2021/08/04 05:37:34;;;;;;;4.03;2.47;;;;;;;25.88;41.86;95266.94;4970349;28;20126;-67
2021/08/04 05:39:59;;;;;;;2.72;2.50;;;;;;;25.90;41.24;95254.47;4969265;28;20101;-67
2021/08/04 05:42:25;;;;;;;3.95;2.45;;;;;;;26.13;41.52;95273.00;4972265;28;20030;-67
2021/08/04 05:44:51;;;;;;;2.72;2.50;;;;;;;26.26;40.94;95267.84;4970275;28;20046;-66
2021/08/04 05:47:16;;;;;;;3.45;2.00;;;;;;;26.43;40.98;95268.91;4961953;28;20051;-66
2021/08/04 05:49:42;;;;;;;3.00;2.20;;;;;;;26.64;40.37;95274.16;4970201;28;20053;-67
2021/08/04 05:52:08;;;;;;;3.00;2.08;;;;;;;26.73;40.13;95268.22;4969032;28;20398;-67
2021/08/04 05:54:33;;;;;;;2.05;1.90;;;;;;;26.66;39.96;95260.88;4971013;28;20070;-67
2021/08/04 05:56:59;;;;;;;1.77;1.65;;;;;;;26.68;40.07;95257.75;4968612;28;20388;-66
2021/08/04 05:59:24;;;;;;;1.80;1.70;;;;;;;26.80;39.46;95262.69;4970272;28;20645;-66
2021/08/04 06:01:49;;;;;;;3.97;1.83;;;;;;;26.96;39.52;95273.81;4965118;28;20529;-68
2021/08/04 06:04:15;;;;;;;1.77;1.67;;;;;;;26.81;39.42;95250.59;4966146;28;20130;-67
2021/08/04 06:06:40;;;;;;;1.92;1.83;;;;;;;26.89;39.21;95252.06;4971600;28;20401;-67
2021/08/04 06:09:06;;;;;;;4.70;2.00;;;;;;;26.95;39.09;95250.44;4969870;28;20046;-67
2021/08/04 06:11:32;;;;;;;2.00;1.80;;;;;;;27.21;39.20;95261.88;4970136;28;20126;-67
2021/08/04 06:13:57;;;;;;;2.15;2.03;;;;;;;27.36;38.15;95254.28;4969804;28;20114;-64
2021/08/04 06:16:23;;;;;;;1.95;1.85;;;;;;;27.54;38.64;95256.78;4962494;28;20035;-65
2021/08/04 06:18:48;;;;;;;1.80;1.45;;;;;;;27.70;38.35;95265.16;4966094;28;20358;-72
2021/08/04 06:21:13;;;;;;;1.58;1.48;;;;;;;27.79;38.19;95268.16;4970312;28;20046;-70
2021/08/04 06:23:39;;;;;;;4.32;1.83;;;;;;;27.88;37.63;95271.16;4970474;28;20039;-69
2021/08/04 06:26:04;;;;;;;2.38;1.60;;;;;;;28.05;37.22;95254.91;4970052;28;20043;-71
2021/08/04 06:28:29;;;;;;;2.55;1.40;;;;;;;28.22;37.08;95267.53;4970622;28;20114;-74
2021/08/04 06:30:55;;;;;;;2.97;2.28;;;;;;;28.15;37.32;95256.69;4970894;28;20389;-64
2021/08/04 06:33:20;;;;;;;1.63;1.50;;;;;;;28.18;37.10;95261.34;4968652;28;20133;-71
2021/08/04 06:35:46;;;;;;;2.60;1.73;;;;;;;28.44;36.37;95262.53;4969734;28;20043;-75
2021/08/04 06:38:12;;;;;;;3.53;1.60;;;;;;;28.39;36.83;95265.72;4970565;28;20049;-71
2021/08/04 06:40:37;;;;;;;1.67;1.33;;;;;;;28.41;35.83;95269.63;4970112;28;20035;-69
2021/08/04 06:43:03;;;;;;;1.60;1.50;;;;;;;28.31;35.89;95258.81;4984906;28;20042;-75
2021/08/04 06:45:28;;;;;;;3.15;1.45;;;;;;;28.33;35.19;95265.44;4971775;28;20023;-71
2021/08/04 06:47:53;;;;;;;1.50;1.30;;;;;;;28.49;35.32;95259.31;4963577;28;20042;-69
2021/08/04 06:50:19;;;;;;;1.35;1.25;;;;;;;28.55;35.31;95262.34;4969837;28;20050;-71
2021/08/04 06:52:44;;;;;;;3.80;1.63;;;;;;;28.54;35.25;95271.75;4970399;28;20393;-64
2021/08/04 06:55:10;;;;;;;1.60;1.50;;;;;;;28.56;35.08;95266.63;4969775;28;20026;-71
2021/08/04 06:57:36;;;;;;;1.73;1.30;;;;;;;28.60;34.82;95264.59;4971551;28;20105;-71
2021/08/04 07:00:01;;;;;;;1.70;1.40;;;;;;;28.84;34.66;95273.56;4969680;28;20043;-72
2021/08/04 07:02:27;;;;;;;1.63;1.45;;;;;;;28.93;34.44;95258.13;4964239;28;20099;-73
2021/08/04 07:04:52;;;;;;;1.40;1.30;;;;;;;29.39;34.13;95261.19;4969925;28;20148;-79
2021/08/04 07:07:17;;;;;;;2.03;1.58;;;;;;;29.60;33.48;95273.69;4969467;28;20035;-81
2021/08/04 07:09:43;;;;;;;1.33;1.23;;;;;;;29.74;33.46;95268.69;4972584;28;20026;-74
2021/08/04 07:12:11;;;;;;;2.03;1.23;;;;;;;29.87;33.47;95271.53;4970059;28;20042;-73
2021/08/04 07:14:37;;;;;;;2.15;1.35;;;;;;;30.07;33.34;95271.47;4970051;28;20043;-68
2021/08/04 07:17:03;;;;;;;1.30;1.20;;;;;;;30.22;32.91;95258.22;4965551;28;20047;-75
2021/08/04 07:19:29;;;;;;;1.58;1.40;;;;;;;30.32;32.56;95256.41;4969241;28;20409;-72
2021/08/04 07:21:54;;;;;;;1.65;1.40;;;;;;;30.45;32.38;95263.50;4972086;28;20062;-76
2021/08/04 07:24:19;;;;;;;1.38;1.10;;;;;;;30.46;32.10;95267.81;4969962;28;20042;-72
2021/08/04 07:26:45;;;;;;;1.58;1.20;;;;;;;30.69;31.87;95269.59;4969539;28;20130;-69
2021/08/04 07:29:11;;;;;;;1.25;1.13;;;;;;;30.77;31.48;95264.72;4969466;28;20051;-69
2021/08/04 07:31:38;;;;;;;1.10;1.10;;;;;;;30.79;31.36;95268.56;4972039;28;20043;-70
2021/08/04 07:34:03;;;;;;;1.02;0.95;;;;;;;30.90;31.11;95262.00;4972527;28;20035;-70
2021/08/04 07:36:29;;;;;;;2.35;1.30;;;;;;;30.93;30.74;95255.66;4974950;28;20033;-70
2021/08/04 07:38:54;;;;;;;1.40;1.30;;;;;;;31.08;30.79;95256.06;4973391;28;20039;-75
2021/08/04 07:41:20;;;;;;;1.48;1.38;;;;;;;31.15;30.74;95273.09;4973524;28;20057;-80
2021/08/04 07:43:45;;;;;;;1.42;1.30;;;;;;;31.06;30.93;95265.47;4973171;28;20527;-77
2021/08/04 07:46:11;;;;;;;1.10;1.02;;;;;;;31.02;31.11;95270.31;4973722;28;20023;-76
2021/08/04 07:48:37;;;;;;;2.22;1.13;;;;;;;30.73;31.20;95264.81;4971688;28;20027;-77
2021/08/04 07:51:04;;;;;;;1.30;1.20;;;;;;;30.76;31.32;95271.38;4973339;28;20050;-76
2021/08/04 07:53:30;;;;;;;1.92;1.10;;;;;;;31.12;30.47;95268.50;4973264;28;20426;-76
2021/08/04 07:55:56;;;;;;;1.05;0.90;;;;;;;31.14;30.33;95259.81;4974077;28;20045;-80
2021/08/04 07:58:22;;;;;;;1.20;0.98;;;;;;;31.25;30.09;95257.53;4973567;28;20031;-78
2021/08/04 08:00:47;;;;;;;1.25;1.00;;;;;;;31.40;30.35;95257.94;4976238;28;20105;-80
2021/08/04 08:03:12;;;;;;;1.13;0.98;;;;;;;31.46;30.18;95264.41;4970831;28;20451;-79
2021/08/04 08:05:38;;;;;;;2.85;1.10;;;;;;;31.46;30.04;95259.69;4988744;28;20058;-77
2021/08/04 08:08:04;;;;;;;1.73;1.60;;;;;;;31.72;29.19;95254.22;4973739;28;20500;-78
2021/08/04 08:10:31;;;;;;;1.08;1.00;;;;;;;31.96;29.46;95251.97;4974255;28;20060;-79
2021/08/04 08:12:57;;;;;;;3.22;1.13;;;;;;;31.84;28.50;95248.00;4973633;28;20062;-78
2021/08/04 08:15:23;;;;;;;1.52;1.00;;;;;;;31.56;29.11;95258.59;4974903;28;20031;-77
2021/08/04 08:17:49;;;;;;;1.23;0.88;;;;;;;31.61;29.00;95259.28;4969757;28;20135;-76
2021/08/04 08:20:19;;;;;;;1.10;1.00;;;;;;;31.82;28.98;95259.44;4972997;28;20582;-78
2021/08/04 08:22:46;;;;;;;0.93;0.93;;;;;;;31.91;28.18;95252.53;4973046;28;20035;-77
2021/08/04 08:25:13;;;;;;;1.02;0.88;;;;;;;31.89;27.42;95263.16;4972992;28;20038;-76
2021/08/04 08:27:39;;;;;;;1.17;1.08;;;;;;;31.92;28.11;95260.31;4973108;28;20034;-76
2021/08/04 08:30:05;;;;;;;2.97;0.85;;;;;;;32.08;27.87;95256.69;4972805;28;20043;-77
2021/08/04 08:32:31;;;;;;;1.08;1.08;;;;;;;32.24;27.89;95253.81;4971174;28;20038;-76
2021/08/04 08:34:56;;;;;;;0.90;0.90;;;;;;;32.28;27.70;95253.69;4972431;28;20373;-76
2021/08/04 08:37:22;;;;;;;2.75;1.05;;;;;;;32.21;27.36;95256.69;4972218;28;20508;-77
2021/08/04 08:39:47;;;;;;;1.15;0.75;;;;;;;31.93;27.49;95252.84;4974534;28;20027;-76
2021/08/04 08:42:13;;;;;;;3.40;1.17;;;;;;;31.82;27.76;95266.91;4971534;28;20481;-76
2021/08/04 08:44:38;;;;;;;1.00;0.90;;;;;;;31.86;27.30;95267.59;4971087;28;20065;-77
2021/08/04 08:47:08;;;;;;;0.90;0.90;;;;;;;31.33;27.97;95255.41;4969946;28;20505;-77
2021/08/04 08:49:34;;;;;;;0.80;0.80;;;;;;;31.76;27.41;95252.16;4964488;28;20102;-76
2021/08/04 08:51:59;;;;;;;1.00;0.90;;;;;;;31.97;27.33;95259.78;4972241;28;20038;-76
2021/08/04 08:54:28;;;;;;;2.08;1.05;;;;;;;31.82;27.38;95253.94;4973987;28;20113;-75
2021/08/04 08:56:54;;;;;;;2.80;1.30;;;;;;;31.77;27.87;95254.44;4971839;28;20035;-76
2021/08/04 08:59:19;;;;;;;1.05;0.88;;;;;;;31.53;28.01;95244.97;4972119;28;20039;-75
2021/08/04 09:01:46;;;;;;;1.25;0.85;;;;;;;31.64;28.30;95239.16;4971920;28;20057;-77
2021/08/04 09:04:16;;;;;;;1.00;1.00;;;;;;;31.49;27.74;95236.84;4983034;28;20489;-76
2021/08/04 09:06:56;;;;;;;1.10;1.00;;;;;;;31.91;28.61;95244.25;4973517;28;20431;-75
2021/08/04 09:09:24;;;;;;;2.50;0.90;;;;;;;32.02;26.41;95239.97;4972226;28;20070;-76
2021/08/04 09:11:55;;;;;;;1.00;1.00;;;;;;;32.06;26.44;95228.84;4970740;28;20038;-76
2021/08/04 09:14:28;;;;;;;0.90;0.82;;;;;;;31.63;26.12;95234.84;4987144;28;20082;-76
2021/08/04 09:17:14;;;;;;;1.30;1.20;;;;;;;31.35;27.02;95233.72;4971420;28;20050;-76
2021/08/04 09:19:42;;;;;;;1.13;1.08;;;;;;;31.63;27.70;95235.63;4964431;28;20053;-75
2021/08/04 09:22:14;;;;;;;0.80;0.80;;;;;;;31.75;27.32;95234.13;4971735;28;20410;-76
2021/08/04 09:24:52;;;;;;;0.95;0.95;;;;;;;31.91;27.53;95231.28;4973714;28;20042;-76
2021/08/04 09:27:19;;;;;;;1.30;1.20;;;;;;;32.08;26.70;95221.69;4969890;28;20410;-76
2021/08/04 09:29:58;;;;;;;1.15;1.05;;;;;;;32.17;26.93;95218.25;4971781;28;20038;-76
2021/08/04 09:32:26;;;;;;;0.82;0.82;;;;;;;32.53;26.71;95223.38;4968997;28;20030;-75
2021/08/04 09:34:52;;;;;;;1.50;0.95;;;;;;;32.69;25.88;95219.69;4965191;28;20130;-76
2021/08/04 09:37:18;;;;;;;1.20;1.10;;;;;;;32.83;26.20;95212.94;4968988;28;20186;-77
2021/08/04 09:39:46;;;;;;;1.35;1.25;;;;;;;32.83;26.32;95215.69;4971471;28;20030;-77
2021/08/04 09:42:13;;;;;;;0.77;0.77;;;;;;;32.96;24.96;95208.16;4970614;28;20034;-76
2021/08/04 09:44:55;;;;;;;1.00;0.98;;;;;;;32.88;25.56;95209.59;4970756;28;20568;-77
2021/08/04 09:47:20;;;;;;;1.10;0.90;;;;;;;33.27;25.17;95199.16;4969350;28;20050;-76
2021/08/04 09:49:59;;;;;;;0.68;0.68;;;;;;;33.14;24.22;95192.97;4964484;28;20038;-70
2021/08/04 09:52:26;;;;;;;1.00;0.80;;;;;;;33.32;24.41;95207.66;4969309;28;20043;-71
2021/08/04 09:54:51;;;;;;;0.70;0.70;;;;;;;33.32;23.99;95188.34;4972660;28;20485;-74
2021/08/04 09:57:17;;;;;;;1.20;0.80;;;;;;;33.26;24.43;95205.91;4968738;28;20039;-71
2021/08/04 10:00:07;;;;;;;0.68;0.68;;;;;;;33.08;23.54;95204.56;4970520;28;20031;-72
2021/08/04 10:02:32;;;;;;;0.60;0.60;;;;;;;33.20;23.27;95188.41;4967759;28;20504;-71
2021/08/04 10:05:15;;;;;;;1.30;0.80;;;;;;;33.37;24.15;95198.00;4965380;28;20054;-72
2021/08/04 10:08:19;;;;;;;0.90;0.90;;;;;;;33.27;24.46;95204.69;4970312;28;20043;-71
2021/08/04 10:10:50;;;;;;;1.10;1.00;;;;;;;33.67;24.80;95204.75;4948470;29;20047;-71
2021/08/04 10:13:18;;;;;;;0.83;0.83;;;;;;;33.21;23.58;95192.69;4948511;29;20050;-72
2021/08/04 10:15:46;;;;;;;0.70;0.70;;;;;;;33.36;24.04;95193.72;4950943;28;20382;-72
2021/08/04 10:18:23;;;;;;;0.80;0.80;;;;;;;33.48;24.20;95206.69;4963541;28;20039;-71
2021/08/04 10:21:00;;;;;;;0.82;0.82;;;;;;;33.71;24.07;95204.63;4968787;28;20500;-71
2021/08/04 10:23:27;;;;;;;1.10;1.00;;;;;;;33.78;23.93;95185.81;4970162;28;20035;-71
2021/08/04 10:25:55;;;;;;;1.83;0.93;;;;;;;33.90;23.46;95195.22;4968486;28;20035;-72
2021/08/04 10:28:21;;;;;;;1.13;1.00;;;;;;;34.03;23.31;95186.84;4969926;28;20038;-71
2021/08/04 10:30:47;;;;;;;1.17;1.00;;;;;;;34.16;23.84;95181.97;4970177;28;20110;-72
2021/08/04 10:33:13;;;;;;;1.00;0.93;;;;;;;34.36;23.27;95187.81;4963847;28;20122;-71
2021/08/04 10:35:45;;;;;;;2.88;0.82;;;;;;;34.28;23.03;95181.06;4968221;28;20516;-72
2021/08/04 10:38:20;;;;;;;0.88;0.88;;;;;;;34.27;23.52;95176.75;4968748;28;20074;-72
2021/08/04 10:40:46;;;;;;;0.95;0.70;;;;;;;33.71;24.24;95193.59;4968573;28;20046;-71
2021/08/04 10:43:57;;;;;;;1.23;1.02;;;;;;;33.56;24.43;95196.13;4969743;28;20351;-70
2021/08/04 10:46:29;;;;;;;1.17;0.90;;;;;;;33.54;24.66;95201.34;4969086;28;20043;-70
2021/08/04 10:49:11;;;;;;;1.45;0.80;;;;;;;33.49;24.20;95185.38;4966338;28;20072;-70
2021/08/04 10:51:41;;;;;;;0.80;0.80;;;;;;;33.30;24.34;95184.50;4969918;28;20050;-70
2021/08/04 10:54:15;;;;;;;0.82;0.77;;;;;;;33.32;24.29;95206.84;4968253;28;20034;-70
2021/08/04 10:56:43;;;;;;;2.58;0.93;;;;;;;32.90;24.32;95206.44;4969264;28;20454;-70
2021/08/04 10:59:11;;;;;;;0.85;0.85;;;;;;;32.77;25.26;95203.72;4969742;28;20078;-70
2021/08/04 11:01:55;;;;;;;0.82;0.82;;;;;;;32.77;25.41;95192.69;4969984;28;20038;-70
2021/08/04 11:04:30;;;;;;;0.85;0.85;;;;;;;32.82;25.27;95195.63;4966548;28;20039;-70
2021/08/04 11:07:20;;;;;;;0.82;0.82;;;;;;;32.84;25.38;95187.69;4972661;28;20035;-70
2021/08/04 11:09:51;;;;;;;0.90;0.90;;;;;;;33.07;25.30;95183.75;4975213;28;20381;-69
2021/08/04 11:12:18;;;;;;;0.77;0.77;;;;;;;33.28;25.40;95179.44;4973376;28;20093;-70
2021/08/04 11:14:49;;;;;;;0.90;0.70;;;;;;;33.46;25.12;95183.53;4972219;28;20050;-70
2021/08/04 11:17:20;;;;;;;1.70;0.93;;;;;;;33.44;24.74;95178.47;4973132;28;20027;-70
2021/08/04 11:19:57;;;;;;;1.65;1.00;;;;;;;33.46;24.58;95183.53;4969094;28;20074;-69
2021/08/04 11:22:26;;;;;;;1.10;0.90;;;;;;;33.33;24.54;95178.09;4973090;28;20046;-69
2021/08/04 11:25:00;;;;;;;0.90;0.80;;;;;;;33.55;24.58;95180.81;4973863;28;20362;-70
2021/08/04 11:27:27;;;;;;;1.58;0.90;;;;;;;33.58;24.45;95172.41;4987002;28;20070;-70
2021/08/04 11:29:55;;;;;;;0.90;0.90;;;;;;;33.94;24.00;95181.31;4972707;28;20073;-75
2021/08/04 11:32:24;;;;;;;1.08;0.93;;;;;;;34.11;24.35;95171.53;4972043;28;20030;-71
2021/08/04 11:34:49;;;;;;;1.55;1.10;;;;;;;34.56;23.98;95172.84;4978146;28;20504;-71
2021/08/04 11:37:15;;;;;;;0.80;0.80;;;;;;;34.49;23.58;95151.81;4972636;28;20105;-71
2021/08/04 11:39:58;;;;;;;1.38;0.90;;;;;;;34.91;23.91;95168.53;4974946;28;20157;-73